• Join FlightAware (Why Join?)
  • Login
  • US Flag 
06:10PM EDT


 

Airport Tracker/Info


-or-


 

Live Flight TrackerFlight Track Log ✈ SWA3675 ✈ 03-May-2013 ✈ KBWI - KORF

Flight Track Log - Related Links

Times and Time Zones

All times are in EDT time to prevent confusion due to time zone crossing. See the SWA3675 flight status page for this flight to view local times or setup timezone preferences in your user account.

Time Position Orientation Groundspeed Altitude Reporting Facility
EDT Latitude Longitude Course Direction KTS MPH feet Rate Location/Type
07:57PM 39.0500 -76.5833 159° South 248 285 7,100  Level Potomac TRACON
07:58PM 38.9833 -76.5333 150° Southeast 281 323 10,800 3,300 Climbing Potomac TRACON
07:59PM 38.9000 -76.5167 171° South 333 383 13,800 1,560 Climbing Potomac TRACON
08:00PM 38.8000 -76.5667 201° Southwest 394 453 14,000 60 Climbing Potomac TRACON
08:01PM 38.7044 -76.7046 184° South  Level FlightAware Approximate
08:02PM 38.6292 -76.6839 208° Southwest 423 487 14,000  Level Washington Center
08:03PM 38.5264 -76.7250 197° South 407 468 14,000  Level Washington Center
08:04PM 38.4122 -76.6886 166° South 372 428 14,000  Level Washington Center
08:05PM 38.3208 -76.6531 163° South 372 428 14,000  Level Washington Center
08:06PM 38.2106 -76.5986 159° South 377 434 14,000  Level Washington Center
08:07PM 38.1108 -76.5550 161° South 382 440 14,000  Level Washington Center
08:08PM 38.0092 -76.5064 159° South 382 440 14,000  Level Washington Center
08:09PM 37.9053 -76.4603 161° South 387 445 14,000  Level Washington Center
08:09PM 37.8719 -76.4519 169° South 393 452 14,000  Level Washington Center
08:10PM 37.8011 -76.4169 159° South 387 445 14,000  Level Washington Center
08:10PM 37.7367 -76.3900 162° South 396 456 14,000 -540 Level Washington Center
08:11PM 37.6994 -76.3686 156° South 387 445 13,500 -2,460 Descending Washington Center
08:11PM 37.6389 -76.3603 174° South 388 447 11,800 480 Descending Washington Center
08:12PM 37.5931 -76.3492 169° South 387 445 14,000 -1,620 Climbing Washington Center
08:12PM 37.5369 -76.3436 176° South 371 427 10,200 -4,020 Descending Washington Center
08:13PM 37.4972 -76.3300 165° South 373 429 10,000 -240 Descending Washington Center
08:13PM 37.4514 -76.3269 177° South 298 343 10,000  Level Washington Center
08:14PM 37.4139 -76.3136 164° South 339 390 10,000  Level Washington Center
08:14PM 37.3556 -76.3025 171° South 319 367 10,000  Level Washington Center
08:15PM 37.3244 -76.2944 168° South 328 377 10,000 -600 Level Washington Center
08:15PM 37.2722 -76.2861 173° South 290 334 9,400 -900 Descending Washington Center
08:16PM 37.2472 -76.2806 170° South 309 356 9,100 -1,320 Descending Washington Center
08:16PM 37.1994 -76.2725 172° South 273 314 8,100 -1,500 Descending Washington Center
08:17PM 37.1703 -76.2644 168° South 294 338 7,700 -1,380 Descending Washington Center
08:17PM 37.1181 -76.2561 173° South 267 307 6,700 -1,500 Descending Washington Center
08:18PM 37.0992 -76.2508 167° South 276 318 6,200 -1,620 Descending Washington Center
08:18PM 37.0472 -76.2528 182° South 274 315 5,100 -1,140 Descending Washington Center
08:19PM 37.0261 -76.2578 191° South 276 318 5,100 -720 Level Washington Center
08:19PM 36.9822 -76.2886 209° Southwest 241 277 4,400 -1,020 Descending Washington Center